sensor_id;sensor_type;location;lat;lon;timestamp;temperature;humidity
55369;DHT22;41247;49.736;8.752;2023-06-22T00:00:44;21.10;99.90
55369;DHT22;41247;49.736;8.752;2023-06-22T00:04:25;21.10;99.90
55369;DHT22;41247;49.736;8.752;2023-06-22T00:08:05;21.10;99.90
55369;DHT22;41247;49.736;8.752;2023-06-22T00:11:46;21.10;99.90
55369;DHT22;41247;49.736;8.752;2023-06-22T00:15:27;21.10;99.90
55369;DHT22;41247;49.736;8.752;2023-06-22T00:19:08;21.10;99.90
55369;DHT22;41247;49.736;8.752;2023-06-22T00:22:48;21.20;99.90
55369;DHT22;41247;49.736;8.752;2023-06-22T00:26:29;21.20;99.90
55369;DHT22;41247;49.736;8.752;2023-06-22T00:30:10;21.20;99.90
55369;DHT22;41247;49.736;8.752;2023-06-22T00:33:51;21.10;99.90
55369;DHT22;41247;49.736;8.752;2023-06-22T00:37:32;21.10;99.90
55369;DHT22;41247;49.736;8.752;2023-06-22T00:41:12;21.10;99.90
55369;DHT22;41247;49.736;8.752;2023-06-22T00:44:53;21.10;99.90
55369;DHT22;41247;49.736;8.752;2023-06-22T00:48:33;21.10;99.90
55369;DHT22;41247;49.736;8.752;2023-06-22T00:52:15;21.10;99.90
55369;DHT22;41247;49.736;8.752;2023-06-22T00:55:56;21.10;99.90
55369;DHT22;41247;49.736;8.752;2023-06-22T00:59:37;21.10;99.90
55369;DHT22;41247;49.736;8.752;2023-06-22T01:03:17;21.10;99.90
55369;DHT22;41247;49.736;8.752;2023-06-22T01:07:08;21.10;99.90
55369;DHT22;41247;49.736;8.752;2023-06-22T01:11:16;21.20;99.90
55369;DHT22;41247;49.736;8.752;2023-06-22T01:15:07;21.30;99.90
55369;DHT22;41247;49.736;8.752;2023-06-22T01:18:52;21.10;99.90
55369;DHT22;41247;49.736;8.752;2023-06-22T01:27:16;20.60;99.90
55369;DHT22;41247;49.736;8.752;2023-06-22T01:31:03;20.40;99.90
55369;DHT22;41247;49.736;8.752;2023-06-22T01:34:47;20.20;99.90
55369;DHT22;41247;49.736;8.752;2023-06-22T01:38:29;20.00;99.90
55369;DHT22;41247;49.736;8.752;2023-06-22T01:42:11;19.80;99.90
55369;DHT22;41247;49.736;8.752;2023-06-22T01:45:52;19.70;99.90
55369;DHT22;41247;49.736;8.752;2023-06-22T01:49:37;19.50;99.90
55369;DHT22;41247;49.736;8.752;2023-06-22T01:53:17;19.50;99.90
55369;DHT22;41247;49.736;8.752;2023-06-22T01:56:58;19.40;99.90
55369;DHT22;41247;49.736;8.752;2023-06-22T02:00:42;19.30;99.90
55369;DHT22;41247;49.736;8.752;2023-06-22T02:04:35;19.30;99.90
55369;DHT22;41247;49.736;8.752;2023-06-22T02:08:32;19.20;99.90
55369;DHT22;41247;49.736;8.752;2023-06-22T02:12:23;19.20;99.90
55369;DHT22;41247;49.736;8.752;2023-06-22T02:16:05;19.20;99.90
55369;DHT22;41247;49.736;8.752;2023-06-22T02:19:46;19.10;99.90
55369;DHT22;41247;49.736;8.752;2023-06-22T02:23:26;19.10;99.90
55369;DHT22;41247;49.736;8.752;2023-06-22T02:27:07;19.10;99.90
55369;DHT22;41247;49.736;8.752;2023-06-22T02:30:47;19.00;99.90
55369;DHT22;41247;49.736;8.752;2023-06-22T02:34:28;18.90;99.90
55369;DHT22;41247;49.736;8.752;2023-06-22T02:38:09;18.80;99.90
55369;DHT22;41247;49.736;8.752;2023-06-22T02:41:50;18.80;99.90
55369;DHT22;41247;49.736;8.752;2023-06-22T02:45:34;18.70;99.90
55369;DHT22;41247;49.736;8.752;2023-06-22T02:49:20;18.70;99.90
55369;DHT22;41247;49.736;8.752;2023-06-22T02:53:00;18.60;99.90
55369;DHT22;41247;49.736;8.752;2023-06-22T02:56:41;18.50;99.90
55369;DHT22;41247;49.736;8.752;2023-06-22T03:00:21;18.50;99.90
55369;DHT22;41247;49.736;8.752;2023-06-22T03:04:02;18.40;99.90
55369;DHT22;41247;49.736;8.752;2023-06-22T03:07:43;18.40;99.90
55369;DHT22;41247;49.736;8.752;2023-06-22T03:11:24;18.30;99.90
55369;DHT22;41247;49.736;8.752;2023-06-22T03:15:10;18.30;99.90
55369;DHT22;41247;49.736;8.752;2023-06-22T03:18:56;18.30;99.90
55369;DHT22;41247;49.736;8.752;2023-06-22T03:22:40;18.20;99.90
55369;DHT22;41247;49.736;8.752;2023-06-22T03:26:21;18.20;99.90
55369;DHT22;41247;49.736;8.752;2023-06-22T03:30:02;18.20;99.90
55369;DHT22;41247;49.736;8.752;2023-06-22T03:33:43;18.20;99.90
55369;DHT22;41247;49.736;8.752;2023-06-22T03:37:25;18.20;99.90
55369;DHT22;41247;49.736;8.752;2023-06-22T03:41:06;18.20;99.90
55369;DHT22;41247;49.736;8.752;2023-06-22T03:44:47;18.10;99.90
55369;DHT22;41247;49.736;8.752;2023-06-22T03:48:27;18.10;99.90
55369;DHT22;41247;49.736;8.752;2023-06-22T03:52:08;18.10;99.90
55369;DHT22;41247;49.736;8.752;2023-06-22T03:55:50;18.10;99.90
55369;DHT22;41247;49.736;8.752;2023-06-22T03:59:31;18.10;99.90
55369;DHT22;41247;49.736;8.752;2023-06-22T04:03:13;18.10;99.90
55369;DHT22;41247;49.736;8.752;2023-06-22T04:06:54;18.10;99.90
55369;DHT22;41247;49.736;8.752;2023-06-22T04:10:34;18.10;99.90
55369;DHT22;41247;49.736;8.752;2023-06-22T04:14:15;18.20;99.90
55369;DHT22;41247;49.736;8.752;2023-06-22T04:17:56;18.30;99.90
55369;DHT22;41247;49.736;8.752;2023-06-22T04:21:37;18.40;99.90
55369;DHT22;41247;49.736;8.752;2023-06-22T04:25:17;18.40;99.90
55369;DHT22;41247;49.736;8.752;2023-06-22T04:28:58;18.50;99.90
55369;DHT22;41247;49.736;8.752;2023-06-22T04:32:46;18.60;99.90
55369;DHT22;41247;49.736;8.752;2023-06-22T04:36:26;18.60;99.90
55369;DHT22;41247;49.736;8.752;2023-06-22T04:40:08;18.60;99.90
55369;DHT22;41247;49.736;8.752;2023-06-22T04:43:49;18.70;99.90
55369;DHT22;41247;49.736;8.752;2023-06-22T04:47:32;18.60;99.90
55369;DHT22;41247;49.736;8.752;2023-06-22T04:51:12;18.60;99.90
55369;DHT22;41247;49.736;8.752;2023-06-22T04:54:53;18.60;99.90
55369;DHT22;41247;49.736;8.752;2023-06-22T04:58:33;18.60;99.90
55369;DHT22;41247;49.736;8.752;2023-06-22T05:02:14;18.60;99.90
55369;DHT22;41247;49.736;8.752;2023-06-22T05:05:55;18.70;99.90
55369;DHT22;41247;49.736;8.752;2023-06-22T05:09:35;18.80;99.90
55369;DHT22;41247;49.736;8.752;2023-06-22T05:13:20;18.90;99.90
55369;DHT22;41247;49.736;8.752;2023-06-22T05:17:00;19.00;99.90
55369;DHT22;41247;49.736;8.752;2023-06-22T05:20:41;19.10;99.90
55369;DHT22;41247;49.736;8.752;2023-06-22T05:24:22;19.30;99.90
55369;DHT22;41247;49.736;8.752;2023-06-22T05:28:02;19.40;99.90
55369;DHT22;41247;49.736;8.752;2023-06-22T05:31:43;19.50;99.90
55369;DHT22;41247;49.736;8.752;2023-06-22T05:35:25;19.60;99.90
55369;DHT22;41247;49.736;8.752;2023-06-22T05:39:13;19.70;99.90
55369;DHT22;41247;49.736;8.752;2023-06-22T05:42:55;19.80;99.90
55369;DHT22;41247;49.736;8.752;2023-06-22T05:46:35;20.00;99.90
55369;DHT22;41247;49.736;8.752;2023-06-22T05:50:16;20.00;99.90
55369;DHT22;41247;49.736;8.752;2023-06-22T05:53:58;20.10;99.90
55369;DHT22;41247;49.736;8.752;2023-06-22T05:57:38;20.20;99.90
55369;DHT22;41247;49.736;8.752;2023-06-22T06:01:19;20.30;99.90
55369;DHT22;41247;49.736;8.752;2023-06-22T06:05:02;20.40;99.90
55369;DHT22;41247;49.736;8.752;2023-06-22T06:08:43;20.50;99.90
55369;DHT22;41247;49.736;8.752;2023-06-22T06:12:24;20.60;99.90
55369;DHT22;41247;49.736;8.752;2023-06-22T06:16:05;20.70;99.90
55369;DHT22;41247;49.736;8.752;2023-06-22T06:19:46;20.90;99.90
55369;DHT22;41247;49.736;8.752;2023-06-22T06:23:26;21.00;99.90
55369;DHT22;41247;49.736;8.752;2023-06-22T06:27:07;21.20;99.90
55369;DHT22;41247;49.736;8.752;2023-06-22T06:30:48;21.40;99.90
55369;DHT22;41247;49.736;8.752;2023-06-22T06:34:28;21.50;99.90
55369;DHT22;41247;49.736;8.752;2023-06-22T06:38:09;21.70;99.90
55369;DHT22;41247;49.736;8.752;2023-06-22T06:41:49;21.90;99.90
55369;DHT22;41247;49.736;8.752;2023-06-22T06:45:30;22.20;99.90
55369;DHT22;41247;49.736;8.752;2023-06-22T06:49:11;22.50;99.90
55369;DHT22;41247;49.736;8.752;2023-06-22T06:52:51;22.70;99.90
55369;DHT22;41247;49.736;8.752;2023-06-22T06:56:32;23.00;99.90
55369;DHT22;41247;49.736;8.752;2023-06-22T07:00:13;23.10;99.90
55369;DHT22;41247;49.736;8.752;2023-06-22T07:03:54;23.40;99.90
55369;DHT22;41247;49.736;8.752;2023-06-22T07:07:35;23.60;99.90
55369;DHT22;41247;49.736;8.752;2023-06-22T07:11:17;23.70;99.90
55369;DHT22;41247;49.736;8.752;2023-06-22T07:15:05;23.80;99.90
55369;DHT22;41247;49.736;8.752;2023-06-22T07:18:50;23.80;99.90
55369;DHT22;41247;49.736;8.752;2023-06-22T07:22:30;24.00;99.90
55369;DHT22;41247;49.736;8.752;2023-06-22T07:26:11;24.10;99.90
55369;DHT22;41247;49.736;8.752;2023-06-22T07:29:51;24.00;99.90
55369;DHT22;41247;49.736;8.752;2023-06-22T07:33:32;24.00;99.90
55369;DHT22;41247;49.736;8.752;2023-06-22T07:37:12;24.10;99.90
55369;DHT22;41247;49.736;8.752;2023-06-22T07:40:53;24.10;99.90
55369;DHT22;41247;49.736;8.752;2023-06-22T07:44:34;24.10;99.90
55369;DHT22;41247;49.736;8.752;2023-06-22T07:48:14;24.20;99.90
55369;DHT22;41247;49.736;8.752;2023-06-22T07:51:55;24.30;99.90
55369;DHT22;41247;49.736;8.752;2023-06-22T07:55:35;24.50;99.90
55369;DHT22;41247;49.736;8.752;2023-06-22T07:59:16;24.50;99.90
55369;DHT22;41247;49.736;8.752;2023-06-22T08:02:57;24.70;99.90
55369;DHT22;41247;49.736;8.752;2023-06-22T08:06:37;24.80;99.90
55369;DHT22;41247;49.736;8.752;2023-06-22T08:10:18;24.80;99.90
55369;DHT22;41247;49.736;8.752;2023-06-22T08:13:59;24.90;99.90
55369;DHT22;41247;49.736;8.752;2023-06-22T08:17:40;25.00;99.90
55369;DHT22;41247;49.736;8.752;2023-06-22T08:21:21;25.10;99.90
55369;DHT22;41247;49.736;8.752;2023-06-22T08:25:01;25.30;99.90
55369;DHT22;41247;49.736;8.752;2023-06-22T08:28:42;25.50;99.90
55369;DHT22;41247;49.736;8.752;2023-06-22T08:32:22;25.80;99.90
55369;DHT22;41247;49.736;8.752;2023-06-22T08:36:03;25.90;99.90
55369;DHT22;41247;49.736;8.752;2023-06-22T08:39:44;26.00;99.90
55369;DHT22;41247;49.736;8.752;2023-06-22T08:43:25;26.10;99.90
55369;DHT22;41247;49.736;8.752;2023-06-22T08:47:05;26.20;99.90
55369;DHT22;41247;49.736;8.752;2023-06-22T08:50:46;26.30;99.90
55369;DHT22;41247;49.736;8.752;2023-06-22T08:54:27;26.40;99.90
55369;DHT22;41247;49.736;8.752;2023-06-22T08:58:07;26.50;99.90
55369;DHT22;41247;49.736;8.752;2023-06-22T09:01:48;26.70;99.90
55369;DHT22;41247;49.736;8.752;2023-06-22T09:05:29;26.90;99.90
55369;DHT22;41247;49.736;8.752;2023-06-22T09:09:09;27.10;99.90
55369;DHT22;41247;49.736;8.752;2023-06-22T09:12:50;27.60;99.90
55369;DHT22;41247;49.736;8.752;2023-06-22T09:16:30;27.70;99.90
55369;DHT22;41247;49.736;8.752;2023-06-22T09:20:11;27.80;99.90
55369;DHT22;41247;49.736;8.752;2023-06-22T09:23:52;27.80;99.90
55369;DHT22;41247;49.736;8.752;2023-06-22T09:27:32;28.30;99.90
55369;DHT22;41247;49.736;8.752;2023-06-22T09:31:13;28.50;99.90
55369;DHT22;41247;49.736;8.752;2023-06-22T09:34:53;28.50;99.90
55369;DHT22;41247;49.736;8.752;2023-06-22T09:38:35;28.50;99.90
55369;DHT22;41247;49.736;8.752;2023-06-22T09:42:16;28.30;99.90
55369;DHT22;41247;49.736;8.752;2023-06-22T09:45:57;28.30;99.90
55369;DHT22;41247;49.736;8.752;2023-06-22T09:49:37;28.60;99.90
55369;DHT22;41247;49.736;8.752;2023-06-22T09:53:18;28.90;99.90
55369;DHT22;41247;49.736;8.752;2023-06-22T09:56:59;29.10;99.90
55369;DHT22;41247;49.736;8.752;2023-06-22T10:00:39;28.90;99.90
55369;DHT22;41247;49.736;8.752;2023-06-22T10:04:20;29.10;99.90
55369;DHT22;41247;49.736;8.752;2023-06-22T10:08:00;29.40;99.90
55369;DHT22;41247;49.736;8.752;2023-06-22T10:11:41;29.50;99.90
55369;DHT22;41247;49.736;8.752;2023-06-22T10:15:21;29.60;99.90
55369;DHT22;41247;49.736;8.752;2023-06-22T10:19:02;29.70;99.90
55369;DHT22;41247;49.736;8.752;2023-06-22T10:22:44;29.90;99.90
55369;DHT22;41247;49.736;8.752;2023-06-22T10:26:25;30.20;99.90
55369;DHT22;41247;49.736;8.752;2023-06-22T10:30:07;30.40;99.90
55369;DHT22;41247;49.736;8.752;2023-06-22T10:33:49;30.60;99.90
55369;DHT22;41247;49.736;8.752;2023-06-22T10:37:30;30.90;99.90
55369;DHT22;41247;49.736;8.752;2023-06-22T10:41:10;31.10;99.90
55369;DHT22;41247;49.736;8.752;2023-06-22T10:44:51;31.20;99.90
55369;DHT22;41247;49.736;8.752;2023-06-22T10:48:31;30.70;99.90
55369;DHT22;41247;49.736;8.752;2023-06-22T10:52:12;30.60;99.90
55369;DHT22;41247;49.736;8.752;2023-06-22T10:55:53;30.80;99.90
55369;DHT22;41247;49.736;8.752;2023-06-22T10:59:33;30.80;99.90
55369;DHT22;41247;49.736;8.752;2023-06-22T11:03:14;30.70;99.90
55369;DHT22;41247;49.736;8.752;2023-06-22T11:06:54;30.30;99.90
55369;DHT22;41247;49.736;8.752;2023-06-22T11:10:35;30.30;99.90
55369;DHT22;41247;49.736;8.752;2023-06-22T11:14:17;30.40;99.90
55369;DHT22;41247;49.736;8.752;2023-06-22T11:17:57;30.80;99.90
55369;DHT22;41247;49.736;8.752;2023-06-22T11:21:38;31.10;99.90
55369;DHT22;41247;49.736;8.752;2023-06-22T11:25:19;31.30;99.90
55369;DHT22;41247;49.736;8.752;2023-06-22T11:28:59;31.80;99.90
55369;DHT22;41247;49.736;8.752;2023-06-22T11:32:40;32.10;99.90
55369;DHT22;41247;49.736;8.752;2023-06-22T11:36:20;31.40;99.90
55369;DHT22;41247;49.736;8.752;2023-06-22T11:40:01;31.20;99.90
55369;DHT22;41247;49.736;8.752;2023-06-22T11:43:42;31.50;99.90
55369;DHT22;41247;49.736;8.752;2023-06-22T11:47:22;31.80;99.90
55369;DHT22;41247;49.736;8.752;2023-06-22T11:51:03;32.30;99.90
55369;DHT22;41247;49.736;8.752;2023-06-22T11:54:43;32.30;99.90
55369;DHT22;41247;49.736;8.752;2023-06-22T11:58:24;32.40;99.90
55369;DHT22;41247;49.736;8.752;2023-06-22T12:02:05;32.60;99.90
55369;DHT22;41247;49.736;8.752;2023-06-22T12:05:45;32.70;99.90
55369;DHT22;41247;49.736;8.752;2023-06-22T12:09:26;32.30;99.90
55369;DHT22;41247;49.736;8.752;2023-06-22T12:13:07;32.10;99.90
55369;DHT22;41247;49.736;8.752;2023-06-22T12:16:47;32.00;99.90
55369;DHT22;41247;49.736;8.752;2023-06-22T12:20:28;31.70;99.90
55369;DHT22;41247;49.736;8.752;2023-06-22T12:24:09;31.90;99.90
55369;DHT22;41247;49.736;8.752;2023-06-22T12:27:49;31.90;99.90
55369;DHT22;41247;49.736;8.752;2023-06-22T12:31:30;32.10;99.90
55369;DHT22;41247;49.736;8.752;2023-06-22T12:35:10;32.10;99.90
55369;DHT22;41247;49.736;8.752;2023-06-22T12:38:51;32.30;99.90
55369;DHT22;41247;49.736;8.752;2023-06-22T12:42:32;32.30;99.90
55369;DHT22;41247;49.736;8.752;2023-06-22T12:46:12;32.00;99.90
55369;DHT22;41247;49.736;8.752;2023-06-22T12:49:53;32.20;99.90
55369;DHT22;41247;49.736;8.752;2023-06-22T12:53:33;32.30;99.90
55369;DHT22;41247;49.736;8.752;2023-06-22T12:57:14;32.70;99.90
55369;DHT22;41247;49.736;8.752;2023-06-22T13:00:56;33.20;99.90
55369;DHT22;41247;49.736;8.752;2023-06-22T13:04:36;33.40;99.90
55369;DHT22;41247;49.736;8.752;2023-06-22T13:08:17;33.40;99.90
55369;DHT22;41247;49.736;8.752;2023-06-22T13:11:59;33.50;99.90
55369;DHT22;41247;49.736;8.752;2023-06-22T13:15:40;34.10;99.90
55369;DHT22;41247;49.736;8.752;2023-06-22T13:19:20;33.90;99.90
55369;DHT22;41247;49.736;8.752;2023-06-22T13:23:01;34.10;99.90
55369;DHT22;41247;49.736;8.752;2023-06-22T13:26:42;33.90;99.90
55369;DHT22;41247;49.736;8.752;2023-06-22T13:30:22;33.90;99.90
55369;DHT22;41247;49.736;8.752;2023-06-22T13:34:03;33.70;99.90
55369;DHT22;41247;49.736;8.752;2023-06-22T13:37:43;33.60;99.90
55369;DHT22;41247;49.736;8.752;2023-06-22T13:41:24;33.80;99.90
55369;DHT22;41247;49.736;8.752;2023-06-22T13:45:05;33.70;99.90
55369;DHT22;41247;49.736;8.752;2023-06-22T13:48:47;33.50;99.90
55369;DHT22;41247;49.736;8.752;2023-06-22T13:52:27;33.40;99.90
55369;DHT22;41247;49.736;8.752;2023-06-22T13:56:08;33.80;99.90
55369;DHT22;41247;49.736;8.752;2023-06-22T13:59:48;33.90;99.90
55369;DHT22;41247;49.736;8.752;2023-06-22T14:03:29;33.80;99.90
55369;DHT22;41247;49.736;8.752;2023-06-22T14:07:10;33.70;99.90
55369;DHT22;41247;49.736;8.752;2023-06-22T14:10:50;33.80;99.90
55369;DHT22;41247;49.736;8.752;2023-06-22T14:14:31;34.00;99.90
55369;DHT22;41247;49.736;8.752;2023-06-22T14:18:12;34.20;99.90
55369;DHT22;41247;49.736;8.752;2023-06-22T14:21:53;34.50;99.90
55369;DHT22;41247;49.736;8.752;2023-06-22T14:25:34;34.40;99.90
55369;DHT22;41247;49.736;8.752;2023-06-22T14:29:14;33.80;99.90
55369;DHT22;41247;49.736;8.752;2023-06-22T14:32:55;33.40;99.90
55369;DHT22;41247;49.736;8.752;2023-06-22T14:36:35;33.20;99.90
55369;DHT22;41247;49.736;8.752;2023-06-22T14:40:16;32.80;99.90
55369;DHT22;41247;49.736;8.752;2023-06-22T14:43:57;32.40;99.90
55369;DHT22;41247;49.736;8.752;2023-06-22T14:47:37;31.70;99.90
55369;DHT22;41247;49.736;8.752;2023-06-22T14:51:18;30.90;99.90
55369;DHT22;41247;49.736;8.752;2023-06-22T14:54:59;30.60;99.90
55369;DHT22;41247;49.736;8.752;2023-06-22T14:58:40;30.40;99.90
55369;DHT22;41247;49.736;8.752;2023-06-22T15:02:21;30.60;99.90
55369;DHT22;41247;49.736;8.752;2023-06-22T15:06:03;30.90;99.90
55369;DHT22;41247;49.736;8.752;2023-06-22T15:09:44;31.30;99.90
55369;DHT22;41247;49.736;8.752;2023-06-22T15:13:25;31.80;99.90
55369;DHT22;41247;49.736;8.752;2023-06-22T15:17:07;32.00;99.90
55369;DHT22;41247;49.736;8.752;2023-06-22T15:20:48;32.00;99.90
55369;DHT22;41247;49.736;8.752;2023-06-22T15:24:28;32.40;99.90
55369;DHT22;41247;49.736;8.752;2023-06-22T15:28:09;32.60;99.90
55369;DHT22;41247;49.736;8.752;2023-06-22T15:31:50;32.30;99.90
55369;DHT22;41247;49.736;8.752;2023-06-22T15:35:32;32.10;99.90
55369;DHT22;41247;49.736;8.752;2023-06-22T15:39:12;31.90;99.90
55369;DHT22;41247;49.736;8.752;2023-06-22T15:42:53;31.90;99.90
55369;DHT22;41247;49.736;8.752;2023-06-22T15:46:33;31.70;99.90
55369;DHT22;41247;49.736;8.752;2023-06-22T15:50:14;31.70;99.90
55369;DHT22;41247;49.736;8.752;2023-06-22T15:53:55;31.70;99.90
55369;DHT22;41247;49.736;8.752;2023-06-22T15:57:35;31.30;99.90
55369;DHT22;41247;49.736;8.752;2023-06-22T16:01:16;30.70;99.90
55369;DHT22;41247;49.736;8.752;2023-06-22T16:04:56;29.90;99.90
55369;DHT22;41247;49.736;8.752;2023-06-22T16:08:37;29.30;99.90
55369;DHT22;41247;49.736;8.752;2023-06-22T16:12:17;29.00;99.90
55369;DHT22;41247;49.736;8.752;2023-06-22T16:15:58;28.70;99.90
55369;DHT22;41247;49.736;8.752;2023-06-22T16:19:39;28.60;99.90
55369;DHT22;41247;49.736;8.752;2023-06-22T16:23:20;28.40;99.90
55369;DHT22;41247;49.736;8.752;2023-06-22T16:27:00;28.20;99.90
55369;DHT22;41247;49.736;8.752;2023-06-22T16:30:41;28.00;99.90
55369;DHT22;41247;49.736;8.752;2023-06-22T16:34:21;27.90;99.90
55369;DHT22;41247;49.736;8.752;2023-06-22T16:38:05;27.80;99.90
55369;DHT22;41247;49.736;8.752;2023-06-22T16:41:45;27.80;99.90
55369;DHT22;41247;49.736;8.752;2023-06-22T16:45:26;27.60;99.90
55369;DHT22;41247;49.736;8.752;2023-06-22T16:49:07;27.60;99.90
55369;DHT22;41247;49.736;8.752;2023-06-22T16:52:48;27.60;99.90
55369;DHT22;41247;49.736;8.752;2023-06-22T16:56:29;27.40;99.90
55369;DHT22;41247;49.736;8.752;2023-06-22T17:00:10;27.20;99.90
55369;DHT22;41247;49.736;8.752;2023-06-22T17:04:11;27.00;99.90
55369;DHT22;41247;49.736;8.752;2023-06-22T17:07:59;26.90;99.90
55369;DHT22;41247;49.736;8.752;2023-06-22T17:11:42;26.80;99.90
55369;DHT22;41247;49.736;8.752;2023-06-22T17:15:24;26.70;99.90
55369;DHT22;41247;49.736;8.752;2023-06-22T17:19:05;26.70;99.90
55369;DHT22;41247;49.736;8.752;2023-06-22T17:22:46;26.60;99.90
55369;DHT22;41247;49.736;8.752;2023-06-22T17:26:26;26.40;99.90
55369;DHT22;41247;49.736;8.752;2023-06-22T17:30:09;26.20;99.90
55369;DHT22;41247;49.736;8.752;2023-06-22T17:33:50;26.10;99.90
55369;DHT22;41247;49.736;8.752;2023-06-22T17:37:53;26.00;99.90
55369;DHT22;41247;49.736;8.752;2023-06-22T17:41:38;26.00;99.90
55369;DHT22;41247;49.736;8.752;2023-06-22T17:45:23;25.90;99.90
55369;DHT22;41247;49.736;8.752;2023-06-22T17:49:08;25.90;99.90
55369;DHT22;41247;49.736;8.752;2023-06-22T17:52:53;25.80;99.90
55369;DHT22;41247;49.736;8.752;2023-06-22T17:56:35;25.80;99.90
55369;DHT22;41247;49.736;8.752;2023-06-22T18:00:16;25.70;99.90
55369;DHT22;41247;49.736;8.752;2023-06-22T18:03:57;25.70;99.90
55369;DHT22;41247;49.736;8.752;2023-06-22T18:07:43;25.60;99.90
55369;DHT22;41247;49.736;8.752;2023-06-22T18:11:24;25.60;99.90
55369;DHT22;41247;49.736;8.752;2023-06-22T18:15:07;25.50;99.90
55369;DHT22;41247;49.736;8.752;2023-06-22T18:18:48;25.50;99.90
55369;DHT22;41247;49.736;8.752;2023-06-22T18:22:29;25.50;99.90
55369;DHT22;41247;49.736;8.752;2023-06-22T18:26:10;25.40;99.90
55369;DHT22;41247;49.736;8.752;2023-06-22T18:29:54;25.40;99.90
55369;DHT22;41247;49.736;8.752;2023-06-22T18:33:35;25.30;99.90
55369;DHT22;41247;49.736;8.752;2023-06-22T18:37:17;25.30;99.90
55369;DHT22;41247;49.736;8.752;2023-06-22T18:40:58;25.20;99.90
55369;DHT22;41247;49.736;8.752;2023-06-22T18:44:40;25.10;99.90
55369;DHT22;41247;49.736;8.752;2023-06-22T18:48:25;25.00;99.90
55369;DHT22;41247;49.736;8.752;2023-06-22T18:52:13;24.90;99.90
55369;DHT22;41247;49.736;8.752;2023-06-22T18:56:12;24.90;99.90
55369;DHT22;41247;49.736;8.752;2023-06-22T19:03:35;24.70;99.90
55369;DHT22;41247;49.736;8.752;2023-06-22T19:07:15;24.70;99.90
55369;DHT22;41247;49.736;8.752;2023-06-22T19:11:11;24.70;99.90
55369;DHT22;41247;49.736;8.752;2023-06-22T19:15:11;24.60;99.90
55369;DHT22;41247;49.736;8.752;2023-06-22T19:18:52;24.60;99.90
55369;DHT22;41247;49.736;8.752;2023-06-22T19:22:56;24.50;99.90
55369;DHT22;41247;49.736;8.752;2023-06-22T19:26:37;24.40;99.90
55369;DHT22;41247;49.736;8.752;2023-06-22T19:30:19;24.40;99.90
55369;DHT22;41247;49.736;8.752;2023-06-22T19:34:03;24.30;99.90
55369;DHT22;41247;49.736;8.752;2023-06-22T19:37:47;24.20;99.90
55369;DHT22;41247;49.736;8.752;2023-06-22T19:41:28;24.20;99.90
55369;DHT22;41247;49.736;8.752;2023-06-22T19:45:13;24.10;99.90
55369;DHT22;41247;49.736;8.752;2023-06-22T19:48:56;24.10;99.90
55369;DHT22;41247;49.736;8.752;2023-06-22T19:52:40;24.10;99.90
55369;DHT22;41247;49.736;8.752;2023-06-22T19:56:21;24.00;99.90
55369;DHT22;41247;49.736;8.752;2023-06-22T20:00:03;24.00;99.90
55369;DHT22;41247;49.736;8.752;2023-06-22T20:03:44;23.90;99.90
55369;DHT22;41247;49.736;8.752;2023-06-22T20:07:34;23.70;99.90
55369;DHT22;41247;49.736;8.752;2023-06-22T20:11:24;23.70;99.90
55369;DHT22;41247;49.736;8.752;2023-06-22T20:19:13;23.50;99.90
55369;DHT22;41247;49.736;8.752;2023-06-22T20:22:57;23.40;99.90
55369;DHT22;41247;49.736;8.752;2023-06-22T20:26:39;23.30;99.90
55369;DHT22;41247;49.736;8.752;2023-06-22T20:30:23;23.20;99.90
55369;DHT22;41247;49.736;8.752;2023-06-22T20:34:04;23.10;99.90
55369;DHT22;41247;49.736;8.752;2023-06-22T20:37:45;22.80;99.90
55369;DHT22;41247;49.736;8.752;2023-06-22T20:41:26;22.50;99.90
55369;DHT22;41247;49.736;8.752;2023-06-22T20:45:07;22.20;99.90
55369;DHT22;41247;49.736;8.752;2023-06-22T20:48:48;22.00;99.90
55369;DHT22;41247;49.736;8.752;2023-06-22T20:52:28;21.70;99.90
55369;DHT22;41247;49.736;8.752;2023-06-22T20:56:09;21.60;99.90
55369;DHT22;41247;49.736;8.752;2023-06-22T20:59:49;21.40;99.90
55369;DHT22;41247;49.736;8.752;2023-06-22T21:03:30;21.20;99.90
55369;DHT22;41247;49.736;8.752;2023-06-22T21:07:13;21.10;99.90
55369;DHT22;41247;49.736;8.752;2023-06-22T21:10:53;21.00;99.90
55369;DHT22;41247;49.736;8.752;2023-06-22T21:14:34;20.90;99.90
55369;DHT22;41247;49.736;8.752;2023-06-22T21:18:14;20.90;99.90
55369;DHT22;41247;49.736;8.752;2023-06-22T21:21:55;20.80;99.90
55369;DHT22;41247;49.736;8.752;2023-06-22T21:25:36;20.70;99.90
55369;DHT22;41247;49.736;8.752;2023-06-22T21:29:16;20.70;99.90
55369;DHT22;41247;49.736;8.752;2023-06-22T21:32:57;20.60;99.90
55369;DHT22;41247;49.736;8.752;2023-06-22T21:36:37;20.60;99.90
55369;DHT22;41247;49.736;8.752;2023-06-22T21:40:18;20.60;99.90
55369;DHT22;41247;49.736;8.752;2023-06-22T21:43:58;20.50;99.90
55369;DHT22;41247;49.736;8.752;2023-06-22T21:47:39;20.50;99.90
55369;DHT22;41247;49.736;8.752;2023-06-22T21:51:20;20.40;99.90
55369;DHT22;41247;49.736;8.752;2023-06-22T21:55:01;20.40;99.90
55369;DHT22;41247;49.736;8.752;2023-06-22T21:58:41;20.40;99.90
55369;DHT22;41247;49.736;8.752;2023-06-22T22:02:22;20.30;99.90
55369;DHT22;41247;49.736;8.752;2023-06-22T22:06:03;20.30;99.90
55369;DHT22;41247;49.736;8.752;2023-06-22T22:09:44;20.30;99.90
55369;DHT22;41247;49.736;8.752;2023-06-22T22:13:25;20.30;99.90
55369;DHT22;41247;49.736;8.752;2023-06-22T22:17:09;20.20;99.90
55369;DHT22;41247;49.736;8.752;2023-06-22T22:20:49;20.20;99.90
55369;DHT22;41247;49.736;8.752;2023-06-22T22:24:30;20.20;99.90
55369;DHT22;41247;49.736;8.752;2023-06-22T22:28:11;20.10;99.90
55369;DHT22;41247;49.736;8.752;2023-06-22T22:31:51;20.10;99.90
55369;DHT22;41247;49.736;8.752;2023-06-22T22:35:32;20.00;99.90
55369;DHT22;41247;49.736;8.752;2023-06-22T22:39:28;20.00;99.90
55369;DHT22;41247;49.736;8.752;2023-06-22T22:43:12;20.00;99.90
55369;DHT22;41247;49.736;8.752;2023-06-22T22:46:54;19.90;99.90
55369;DHT22;41247;49.736;8.752;2023-06-22T22:50:35;19.90;99.90
55369;DHT22;41247;49.736;8.752;2023-06-22T22:54:19;19.80;99.90
55369;DHT22;41247;49.736;8.752;2023-06-22T22:58:01;19.80;99.90
55369;DHT22;41247;49.736;8.752;2023-06-22T23:01:42;19.80;99.90
55369;DHT22;41247;49.736;8.752;2023-06-22T23:05:22;19.70;99.90
55369;DHT22;41247;49.736;8.752;2023-06-22T23:09:03;19.60;99.90
55369;DHT22;41247;49.736;8.752;2023-06-22T23:12:44;19.50;99.90
55369;DHT22;41247;49.736;8.752;2023-06-22T23:16:27;19.50;99.90
55369;DHT22;41247;49.736;8.752;2023-06-22T23:20:09;19.30;99.90
55369;DHT22;41247;49.736;8.752;2023-06-22T23:23:49;19.20;99.90
55369;DHT22;41247;49.736;8.752;2023-06-22T23:27:30;19.10;99.90
55369;DHT22;41247;49.736;8.752;2023-06-22T23:31:10;18.90;99.90